sensor_id;sensor_type;location;lat;lon;timestamp;P1;durP1;ratioP1;P2;durP2;ratioP2
69979;SDS011;57318;56.232;43.944;2023-09-30T00:01:58;7.80;;;4.97;;
69979;SDS011;57318;56.232;43.944;2023-09-30T00:04:24;11.90;;;5.80;;
69979;SDS011;57318;56.232;43.944;2023-09-30T00:06:49;8.27;;;5.43;;
69979;SDS011;57318;56.232;43.944;2023-09-30T00:09:15;7.07;;;4.97;;
69979;SDS011;57318;56.232;43.944;2023-09-30T00:11:41;9.30;;;5.50;;
69979;SDS011;57318;56.232;43.944;2023-09-30T00:14:07;6.93;;;5.33;;
69979;SDS011;57318;56.232;43.944;2023-09-30T00:16:32;8.53;;;5.00;;
69979;SDS011;57318;56.232;43.944;2023-09-30T00:18:58;11.40;;;4.93;;
69979;SDS011;57318;56.232;43.944;2023-09-30T00:21:24;8.67;;;5.20;;
69979;SDS011;57318;56.232;43.944;2023-09-30T00:23:50;7.95;;;5.00;;
69979;SDS011;57318;56.232;43.944;2023-09-30T00:26:15;13.77;;;5.27;;
69979;SDS011;57318;56.232;43.944;2023-09-30T00:28:41;8.30;;;5.20;;
69979;SDS011;57318;56.232;43.944;2023-09-30T00:31:07;8.57;;;5.23;;
69979;SDS011;57318;56.232;43.944;2023-09-30T00:33:36;9.82;;;5.40;;
69979;SDS011;57318;56.232;43.944;2023-09-30T00:36:11;8.30;;;5.70;;
69979;SDS011;57318;56.232;43.944;2023-09-30T00:38:37;8.45;;;5.43;;
69979;SDS011;57318;56.232;43.944;2023-09-30T00:41:03;8.23;;;5.30;;
69979;SDS011;57318;56.232;43.944;2023-09-30T00:43:29;8.98;;;5.97;;
69979;SDS011;57318;56.232;43.944;2023-09-30T00:46:03;11.47;;;6.17;;
69979;SDS011;57318;56.232;43.944;2023-09-30T00:48:34;9.83;;;6.00;;
69979;SDS011;57318;56.232;43.944;2023-09-30T00:51:00;10.30;;;6.55;;
69979;SDS011;57318;56.232;43.944;2023-09-30T00:53:28;11.23;;;6.20;;
69979;SDS011;57318;56.232;43.944;2023-09-30T00:55:55;9.60;;;6.05;;
69979;SDS011;57318;56.232;43.944;2023-09-30T00:58:22;9.70;;;6.15;;
69979;SDS011;57318;56.232;43.944;2023-09-30T01:00:52;12.18;;;6.55;;
69979;SDS011;57318;56.232;43.944;2023-09-30T01:03:20;9.95;;;6.13;;
69979;SDS011;57318;56.232;43.944;2023-09-30T01:05:47;12.10;;;6.55;;
69979;SDS011;57318;56.232;43.944;2023-09-30T01:08:15;11.43;;;6.97;;
69979;SDS011;57318;56.232;43.944;2023-09-30T01:10:41;12.50;;;6.95;;
69979;SDS011;57318;56.232;43.944;2023-09-30T01:13:08;10.55;;;6.78;;
69979;SDS011;57318;56.232;43.944;2023-09-30T01:15:33;10.40;;;6.50;;
69979;SDS011;57318;56.232;43.944;2023-09-30T01:17:59;9.65;;;6.90;;
69979;SDS011;57318;56.232;43.944;2023-09-30T01:20:25;12.47;;;7.60;;
69979;SDS011;57318;56.232;43.944;2023-09-30T01:25:19;8.43;;;6.15;;
69979;SDS011;57318;56.232;43.944;2023-09-30T01:27:47;11.25;;;6.57;;
69979;SDS011;57318;56.232;43.944;2023-09-30T01:30:13;11.97;;;7.07;;
69979;SDS011;57318;56.232;43.944;2023-09-30T01:32:39;11.13;;;6.30;;
69979;SDS011;57318;56.232;43.944;2023-09-30T01:35:08;11.55;;;6.70;;
69979;SDS011;57318;56.232;43.944;2023-09-30T01:37:34;13.77;;;6.70;;
69979;SDS011;57318;56.232;43.944;2023-09-30T01:40:01;9.30;;;6.07;;
69979;SDS011;57318;56.232;43.944;2023-09-30T01:42:29;12.02;;;6.57;;
69979;SDS011;57318;56.232;43.944;2023-09-30T01:44:55;12.70;;;6.73;;
69979;SDS011;57318;56.232;43.944;2023-09-30T01:49:47;14.75;;;6.75;;
69979;SDS011;57318;56.232;43.944;2023-09-30T01:52:13;11.73;;;7.23;;
69979;SDS011;57318;56.232;43.944;2023-09-30T01:54:39;13.40;;;6.88;;
69979;SDS011;57318;56.232;43.944;2023-09-30T01:57:05;12.10;;;6.97;;
69979;SDS011;57318;56.232;43.944;2023-09-30T01:59:31;12.67;;;6.63;;
69979;SDS011;57318;56.232;43.944;2023-09-30T02:01:56;12.03;;;6.97;;
69979;SDS011;57318;56.232;43.944;2023-09-30T02:04:22;11.10;;;7.10;;
69979;SDS011;57318;56.232;43.944;2023-09-30T02:06:48;10.77;;;6.80;;
69979;SDS011;57318;56.232;43.944;2023-09-30T02:09:14;13.10;;;7.23;;
69979;SDS011;57318;56.232;43.944;2023-09-30T02:11:40;9.57;;;6.37;;
69979;SDS011;57318;56.232;43.944;2023-09-30T02:14:07;13.57;;;6.85;;
69979;SDS011;57318;56.232;43.944;2023-09-30T02:16:33;12.40;;;6.80;;
69979;SDS011;57318;56.232;43.944;2023-09-30T02:18:59;15.77;;;7.55;;
69979;SDS011;57318;56.232;43.944;2023-09-30T02:21:24;14.60;;;7.50;;
69979;SDS011;57318;56.232;43.944;2023-09-30T02:23:50;11.43;;;6.60;;
69979;SDS011;57318;56.232;43.944;2023-09-30T02:26:20;12.52;;;7.13;;
69979;SDS011;57318;56.232;43.944;2023-09-30T02:28:48;11.73;;;7.07;;
69979;SDS011;57318;56.232;43.944;2023-09-30T02:31:13;12.77;;;7.53;;
69979;SDS011;57318;56.232;43.944;2023-09-30T02:33:39;14.87;;;7.50;;
69979;SDS011;57318;56.232;43.944;2023-09-30T02:36:08;17.27;;;8.10;;
69979;SDS011;57318;56.232;43.944;2023-09-30T02:38:35;16.45;;;7.63;;
69979;SDS011;57318;56.232;43.944;2023-09-30T02:41:04;13.05;;;7.65;;
69979;SDS011;57318;56.232;43.944;2023-09-30T02:43:30;13.07;;;6.90;;
69979;SDS011;57318;56.232;43.944;2023-09-30T02:45:56;12.53;;;7.70;;
69979;SDS011;57318;56.232;43.944;2023-09-30T02:48:22;13.37;;;7.37;;
69979;SDS011;57318;56.232;43.944;2023-09-30T02:50:47;11.60;;;7.53;;
69979;SDS011;57318;56.232;43.944;2023-09-30T02:53:13;18.97;;;7.53;;
69979;SDS011;57318;56.232;43.944;2023-09-30T02:55:39;15.35;;;7.65;;
69979;SDS011;57318;56.232;43.944;2023-09-30T02:58:06;13.40;;;7.72;;
69979;SDS011;57318;56.232;43.944;2023-09-30T03:00:33;12.25;;;7.30;;
69979;SDS011;57318;56.232;43.944;2023-09-30T03:03:03;12.38;;;7.57;;
69979;SDS011;57318;56.232;43.944;2023-09-30T03:05:29;12.63;;;7.88;;
69979;SDS011;57318;56.232;43.944;2023-09-30T03:07:58;12.80;;;7.80;;
69979;SDS011;57318;56.232;43.944;2023-09-30T03:10:25;12.65;;;7.32;;
69979;SDS011;57318;56.232;43.944;2023-09-30T03:15:18;13.25;;;8.18;;
69979;SDS011;57318;56.232;43.944;2023-09-30T03:17:44;13.45;;;7.28;;
69979;SDS011;57318;56.232;43.944;2023-09-30T03:20:10;17.00;;;8.00;;
69979;SDS011;57318;56.232;43.944;2023-09-30T03:22:41;15.25;;;7.88;;
69979;SDS011;57318;56.232;43.944;2023-09-30T03:25:08;16.17;;;7.68;;
69979;SDS011;57318;56.232;43.944;2023-09-30T03:27:38;13.52;;;7.43;;
69979;SDS011;57318;56.232;43.944;2023-09-30T03:30:04;11.60;;;7.20;;
69979;SDS011;57318;56.232;43.944;2023-09-30T03:32:32;12.40;;;7.30;;
69979;SDS011;57318;56.232;43.944;2023-09-30T03:34:59;15.30;;;7.45;;
69979;SDS011;57318;56.232;43.944;2023-09-30T03:37:27;13.35;;;7.63;;
69979;SDS011;57318;56.232;43.944;2023-09-30T03:42:19;12.63;;;6.82;;
69979;SDS011;57318;56.232;43.944;2023-09-30T03:44:45;12.13;;;7.37;;
69979;SDS011;57318;56.232;43.944;2023-09-30T03:47:11;11.30;;;7.00;;
69979;SDS011;57318;56.232;43.944;2023-09-30T03:49:36;11.20;;;7.10;;
69979;SDS011;57318;56.232;43.944;2023-09-30T03:52:03;10.57;;;6.82;;
69979;SDS011;57318;56.232;43.944;2023-09-30T03:54:31;13.57;;;7.07;;
69979;SDS011;57318;56.232;43.944;2023-09-30T03:56:57;14.03;;;7.23;;
69979;SDS011;57318;56.232;43.944;2023-09-30T03:59:25;12.13;;;7.43;;
69979;SDS011;57318;56.232;43.944;2023-09-30T04:01:51;12.20;;;7.38;;
69979;SDS011;57318;56.232;43.944;2023-09-30T04:04:21;13.48;;;7.75;;
69979;SDS011;57318;56.232;43.944;2023-09-30T04:06:47;13.68;;;7.72;;
69979;SDS011;57318;56.232;43.944;2023-09-30T04:09:20;11.33;;;6.73;;
69979;SDS011;57318;56.232;43.944;2023-09-30T04:11:46;12.05;;;7.03;;
69979;SDS011;57318;56.232;43.944;2023-09-30T04:14:12;12.83;;;7.30;;
69979;SDS011;57318;56.232;43.944;2023-09-30T04:16:37;13.80;;;7.13;;
69979;SDS011;57318;56.232;43.944;2023-09-30T04:19:04;12.50;;;7.53;;
69979;SDS011;57318;56.232;43.944;2023-09-30T04:23:59;12.82;;;7.90;;
69979;SDS011;57318;56.232;43.944;2023-09-30T04:26:25;11.35;;;7.75;;
69979;SDS011;57318;56.232;43.944;2023-09-30T04:28:51;18.37;;;7.23;;
69979;SDS011;57318;56.232;43.944;2023-09-30T04:31:18;11.63;;;7.32;;
69979;SDS011;57318;56.232;43.944;2023-09-30T04:33:44;10.63;;;6.80;;
69979;SDS011;57318;56.232;43.944;2023-09-30T04:36:10;19.08;;;8.30;;
69979;SDS011;57318;56.232;43.944;2023-09-30T04:38:36;13.67;;;7.20;;
69979;SDS011;57318;56.232;43.944;2023-09-30T04:41:05;14.20;;;7.30;;
69979;SDS011;57318;56.232;43.944;2023-09-30T04:43:33;12.05;;;7.47;;
69979;SDS011;57318;56.232;43.944;2023-09-30T04:45:59;13.43;;;7.63;;
69979;SDS011;57318;56.232;43.944;2023-09-30T04:48:25;10.17;;;6.77;;
69979;SDS011;57318;56.232;43.944;2023-09-30T04:50:51;12.98;;;7.07;;
69979;SDS011;57318;56.232;43.944;2023-09-30T04:53:17;11.75;;;7.18;;
69979;SDS011;57318;56.232;43.944;2023-09-30T04:55:44;12.63;;;7.57;;
69979;SDS011;57318;56.232;43.944;2023-09-30T04:58:10;14.85;;;6.78;;
69979;SDS011;57318;56.232;43.944;2023-09-30T05:00:36;17.60;;;7.25;;
69979;SDS011;57318;56.232;43.944;2023-09-30T05:03:02;10.87;;;6.87;;
69979;SDS011;57318;56.232;43.944;2023-09-30T05:05:30;15.18;;;7.65;;
69979;SDS011;57318;56.232;43.944;2023-09-30T05:07:56;11.85;;;7.28;;
69979;SDS011;57318;56.232;43.944;2023-09-30T05:10:25;12.40;;;6.88;;
69979;SDS011;57318;56.232;43.944;2023-09-30T05:12:51;11.03;;;6.67;;
69979;SDS011;57318;56.232;43.944;2023-09-30T05:15:20;11.73;;;7.10;;
69979;SDS011;57318;56.232;43.944;2023-09-30T05:17:47;15.13;;;7.53;;
69979;SDS011;57318;56.232;43.944;2023-09-30T05:20:13;13.50;;;6.65;;
69979;SDS011;57318;56.232;43.944;2023-09-30T05:22:42;12.38;;;7.15;;
69979;SDS011;57318;56.232;43.944;2023-09-30T05:25:12;13.20;;;7.65;;
69979;SDS011;57318;56.232;43.944;2023-09-30T05:27:41;12.65;;;7.60;;
69979;SDS011;57318;56.232;43.944;2023-09-30T05:30:10;12.15;;;7.68;;
69979;SDS011;57318;56.232;43.944;2023-09-30T05:32:41;14.77;;;8.10;;
69979;SDS011;57318;56.232;43.944;2023-09-30T05:35:06;13.97;;;7.77;;
69979;SDS011;57318;56.232;43.944;2023-09-30T05:37:39;12.38;;;7.72;;
69979;SDS011;57318;56.232;43.944;2023-09-30T05:40:08;11.93;;;7.80;;
69979;SDS011;57318;56.232;43.944;2023-09-30T05:43:03;17.02;;;7.85;;
69979;SDS011;57318;56.232;43.944;2023-09-30T05:45:31;15.65;;;8.20;;
69979;SDS011;57318;56.232;43.944;2023-09-30T05:48:03;11.48;;;7.95;;
69979;SDS011;57318;56.232;43.944;2023-09-30T05:50:32;14.95;;;8.30;;
69979;SDS011;57318;56.232;43.944;2023-09-30T05:53:00;15.18;;;7.60;;
69979;SDS011;57318;56.232;43.944;2023-09-30T05:55:26;12.43;;;7.90;;
69979;SDS011;57318;56.232;43.944;2023-09-30T05:57:51;14.53;;;8.33;;
69979;SDS011;57318;56.232;43.944;2023-09-30T06:00:18;15.50;;;7.72;;
69979;SDS011;57318;56.232;43.944;2023-09-30T06:02:57;16.55;;;8.80;;
69979;SDS011;57318;56.232;43.944;2023-09-30T06:05:24;14.43;;;7.70;;
69979;SDS011;57318;56.232;43.944;2023-09-30T06:07:55;14.10;;;8.38;;
69979;SDS011;57318;56.232;43.944;2023-09-30T06:10:22;16.73;;;8.48;;
69979;SDS011;57318;56.232;43.944;2023-09-30T06:12:48;14.15;;;8.13;;
69979;SDS011;57318;56.232;43.944;2023-09-30T06:15:21;14.15;;;8.38;;
69979;SDS011;57318;56.232;43.944;2023-09-30T06:17:49;14.52;;;8.43;;
69979;SDS011;57318;56.232;43.944;2023-09-30T06:20:16;16.85;;;9.50;;
69979;SDS011;57318;56.232;43.944;2023-09-30T06:22:45;12.95;;;8.18;;
69979;SDS011;57318;56.232;43.944;2023-09-30T06:25:12;14.73;;;9.15;;
69979;SDS011;57318;56.232;43.944;2023-09-30T06:27:44;14.98;;;8.75;;
69979;SDS011;57318;56.232;43.944;2023-09-30T06:30:11;15.15;;;8.43;;
69979;SDS011;57318;56.232;43.944;2023-09-30T06:32:38;20.13;;;9.07;;
69979;SDS011;57318;56.232;43.944;2023-09-30T06:35:06;12.95;;;8.98;;
69979;SDS011;57318;56.232;43.944;2023-09-30T06:37:35;14.65;;;8.70;;
69979;SDS011;57318;56.232;43.944;2023-09-30T06:40:08;14.90;;;8.77;;
69979;SDS011;57318;56.232;43.944;2023-09-30T06:42:37;14.77;;;8.48;;
69979;SDS011;57318;56.232;43.944;2023-09-30T06:45:05;14.60;;;8.60;;
69979;SDS011;57318;56.232;43.944;2023-09-30T06:47:33;13.77;;;8.57;;
69979;SDS011;57318;56.232;43.944;2023-09-30T06:50:03;13.35;;;8.85;;
69979;SDS011;57318;56.232;43.944;2023-09-30T06:52:37;17.05;;;9.48;;
69979;SDS011;57318;56.232;43.944;2023-09-30T06:55:06;15.70;;;9.02;;
69979;SDS011;57318;56.232;43.944;2023-09-30T06:57:33;14.98;;;9.15;;
69979;SDS011;57318;56.232;43.944;2023-09-30T07:00:05;16.67;;;9.05;;
69979;SDS011;57318;56.232;43.944;2023-09-30T07:02:34;13.75;;;9.00;;
69979;SDS011;57318;56.232;43.944;2023-09-30T07:07:30;17.70;;;9.05;;
69979;SDS011;57318;56.232;43.944;2023-09-30T07:09:56;15.80;;;8.93;;
69979;SDS011;57318;56.232;43.944;2023-09-30T07:12:24;18.47;;;9.77;;
69979;SDS011;57318;56.232;43.944;2023-09-30T07:14:49;21.38;;;9.95;;
69979;SDS011;57318;56.232;43.944;2023-09-30T07:17:15;18.63;;;10.47;;
69979;SDS011;57318;56.232;43.944;2023-09-30T07:19:41;17.65;;;10.02;;
69979;SDS011;57318;56.232;43.944;2023-09-30T07:22:07;16.00;;;9.23;;
69979;SDS011;57318;56.232;43.944;2023-09-30T07:24:32;14.63;;;9.20;;
69979;SDS011;57318;56.232;43.944;2023-09-30T07:26:58;15.55;;;8.98;;
69979;SDS011;57318;56.232;43.944;2023-09-30T07:29:24;13.05;;;8.55;;
69979;SDS011;57318;56.232;43.944;2023-09-30T07:31:50;15.23;;;8.70;;
69979;SDS011;57318;56.232;43.944;2023-09-30T07:34:16;18.60;;;8.57;;
69979;SDS011;57318;56.232;43.944;2023-09-30T07:36:44;18.05;;;8.68;;
69979;SDS011;57318;56.232;43.944;2023-09-30T07:39:11;17.13;;;9.23;;
69979;SDS011;57318;56.232;43.944;2023-09-30T07:41:37;12.90;;;8.57;;
69979;SDS011;57318;56.232;43.944;2023-09-30T07:44:03;13.55;;;8.35;;
69979;SDS011;57318;56.232;43.944;2023-09-30T07:46:29;16.25;;;8.77;;
69979;SDS011;57318;56.232;43.944;2023-09-30T07:48:55;19.10;;;8.85;;
69979;SDS011;57318;56.232;43.944;2023-09-30T07:51:21;14.50;;;8.80;;
69979;SDS011;57318;56.232;43.944;2023-09-30T07:53:47;14.10;;;8.65;;
69979;SDS011;57318;56.232;43.944;2023-09-30T07:56:13;13.90;;;7.88;;
69979;SDS011;57318;56.232;43.944;2023-09-30T07:58:39;15.18;;;9.32;;
69979;SDS011;57318;56.232;43.944;2023-09-30T08:01:07;15.45;;;9.90;;
69979;SDS011;57318;56.232;43.944;2023-09-30T08:03:33;17.73;;;9.07;;
69979;SDS011;57318;56.232;43.944;2023-09-30T08:06:00;19.38;;;9.80;;
69979;SDS011;57318;56.232;43.944;2023-09-30T08:08:26;14.77;;;9.40;;
69979;SDS011;57318;56.232;43.944;2023-09-30T08:10:53;16.75;;;8.82;;
69979;SDS011;57318;56.232;43.944;2023-09-30T08:13:21;17.85;;;10.10;;
69979;SDS011;57318;56.232;43.944;2023-09-30T08:15:49;16.33;;;9.27;;
69979;SDS011;57318;56.232;43.944;2023-09-30T08:18:16;15.15;;;8.63;;
69979;SDS011;57318;56.232;43.944;2023-09-30T08:20:42;17.23;;;8.57;;
69979;SDS011;57318;56.232;43.944;2023-09-30T08:23:08;28.63;;;10.02;;
69979;SDS011;57318;56.232;43.944;2023-09-30T08:27:59;18.48;;;9.65;;
69979;SDS011;57318;56.232;43.944;2023-09-30T08:30:25;20.63;;;9.15;;
69979;SDS011;57318;56.232;43.944;2023-09-30T08:35:17;19.23;;;9.30;;
69979;SDS011;57318;56.232;43.944;2023-09-30T08:40:08;15.50;;;9.63;;
69979;SDS011;57318;56.232;43.944;2023-09-30T08:42:35;14.68;;;9.20;;
69979;SDS011;57318;56.232;43.944;2023-09-30T08:45:01;13.80;;;9.60;;
69979;SDS011;57318;56.232;43.944;2023-09-30T08:47:30;19.10;;;10.43;;
69979;SDS011;57318;56.232;43.944;2023-09-30T08:52:31;13.68;;;8.35;;
69979;SDS011;57318;56.232;43.944;2023-09-30T08:55:00;12.63;;;8.13;;
69979;SDS011;57318;56.232;43.944;2023-09-30T08:57:29;10.82;;;7.85;;
69979;SDS011;57318;56.232;43.944;2023-09-30T08:59:55;11.02;;;7.32;;
69979;SDS011;57318;56.232;43.944;2023-09-30T09:02:22;10.07;;;7.88;;
69979;SDS011;57318;56.232;43.944;2023-09-30T09:07:14;13.57;;;8.27;;
69979;SDS011;57318;56.232;43.944;2023-09-30T09:09:40;11.70;;;7.70;;
69979;SDS011;57318;56.232;43.944;2023-09-30T09:14:43;14.40;;;8.13;;
69979;SDS011;57318;56.232;43.944;2023-09-30T09:17:10;9.13;;;7.22;;
69979;SDS011;57318;56.232;43.944;2023-09-30T09:19:39;13.35;;;8.13;;
69979;SDS011;57318;56.232;43.944;2023-09-30T09:22:04;9.18;;;7.20;;
69979;SDS011;57318;56.232;43.944;2023-09-30T09:24:34;10.20;;;7.32;;
69979;SDS011;57318;56.232;43.944;2023-09-30T09:27:06;9.05;;;7.68;;
69979;SDS011;57318;56.232;43.944;2023-09-30T09:29:37;14.82;;;7.50;;
69979;SDS011;57318;56.232;43.944;2023-09-30T09:32:16;10.55;;;7.68;;
69979;SDS011;57318;56.232;43.944;2023-09-30T09:34:45;13.50;;;8.30;;
69979;SDS011;57318;56.232;43.944;2023-09-30T09:37:25;12.50;;;7.97;;
69979;SDS011;57318;56.232;43.944;2023-09-30T09:39:52;11.52;;;8.18;;
69979;SDS011;57318;56.232;43.944;2023-09-30T09:42:31;13.05;;;8.15;;
69979;SDS011;57318;56.232;43.944;2023-09-30T09:44:59;12.25;;;7.88;;
69979;SDS011;57318;56.232;43.944;2023-09-30T09:47:33;11.27;;;7.95;;
69979;SDS011;57318;56.232;43.944;2023-09-30T09:49:59;11.48;;;7.90;;
69979;SDS011;57318;56.232;43.944;2023-09-30T09:52:29;15.35;;;8.32;;
69979;SDS011;57318;56.232;43.944;2023-09-30T09:54:56;12.25;;;8.38;;
69979;SDS011;57318;56.232;43.944;2023-09-30T09:57:23;12.50;;;8.35;;
69979;SDS011;57318;56.232;43.944;2023-09-30T09:59:51;9.88;;;8.13;;
69979;SDS011;57318;56.232;43.944;2023-09-30T10:02:19;12.70;;;8.40;;
69979;SDS011;57318;56.232;43.944;2023-09-30T10:07:15;13.10;;;8.55;;
69979;SDS011;57318;56.232;43.944;2023-09-30T10:12:15;15.90;;;8.60;;
69979;SDS011;57318;56.232;43.944;2023-09-30T10:14:42;10.93;;;7.95;;
69979;SDS011;57318;56.232;43.944;2023-09-30T10:19:33;12.85;;;8.75;;
69979;SDS011;57318;56.232;43.944;2023-09-30T10:24:43;12.35;;;8.27;;
69979;SDS011;57318;56.232;43.944;2023-09-30T10:29:54;11.48;;;7.90;;
69979;SDS011;57318;56.232;43.944;2023-09-30T10:32:52;9.40;;;7.45;;
69979;SDS011;57318;56.232;43.944;2023-09-30T10:40:48;11.95;;;7.75;;
69979;SDS011;57318;56.232;43.944;2023-09-30T10:43:29;17.90;;;13.85;;
69979;SDS011;57318;56.232;43.944;2023-09-30T10:45:58;12.30;;;8.10;;
69979;SDS011;57318;56.232;43.944;2023-09-30T10:50:52;12.05;;;8.27;;
69979;SDS011;57318;56.232;43.944;2023-09-30T10:53:20;13.32;;;8.25;;
69979;SDS011;57318;56.232;43.944;2023-09-30T10:55:46;16.38;;;7.72;;
69979;SDS011;57318;56.232;43.944;2023-09-30T10:58:20;11.65;;;8.70;;
69979;SDS011;57318;56.232;43.944;2023-09-30T11:00:54;10.35;;;7.93;;
69979;SDS011;57318;56.232;43.944;2023-09-30T11:03:21;9.95;;;7.75;;
69979;SDS011;57318;56.232;43.944;2023-09-30T11:05:47;10.05;;;7.90;;
69979;SDS011;57318;56.232;43.944;2023-09-30T11:08:17;12.10;;;8.43;;
69979;SDS011;57318;56.232;43.944;2023-09-30T11:10:47;14.20;;;8.43;;
69979;SDS011;57318;56.232;43.944;2023-09-30T11:13:17;9.95;;;8.10;;
69979;SDS011;57318;56.232;43.944;2023-09-30T11:15:44;13.98;;;8.80;;
69979;SDS011;57318;56.232;43.944;2023-09-30T11:18:17;12.20;;;7.97;;
69979;SDS011;57318;56.232;43.944;2023-09-30T11:20:44;15.30;;;8.38;;
69979;SDS011;57318;56.232;43.944;2023-09-30T11:23:11;9.90;;;8.32;;
69979;SDS011;57318;56.232;43.944;2023-09-30T11:25:38;12.00;;;7.93;;
69979;SDS011;57318;56.232;43.944;2023-09-30T11:28:39;14.45;;;8.00;;
69979;SDS011;57318;56.232;43.944;2023-09-30T11:31:07;10.25;;;7.45;;
69979;SDS011;57318;56.232;43.944;2023-09-30T11:33:51;10.32;;;7.18;;
69979;SDS011;57318;56.232;43.944;2023-09-30T11:36:21;12.43;;;7.88;;
69979;SDS011;57318;56.232;43.944;2023-09-30T11:41:13;10.15;;;7.07;;
69979;SDS011;57318;56.232;43.944;2023-09-30T11:46:08;9.93;;;8.13;;
69979;SDS011;57318;56.232;43.944;2023-09-30T11:48:38;11.32;;;7.90;;
69979;SDS011;57318;56.232;43.944;2023-09-30T11:51:05;12.18;;;8.25;;
69979;SDS011;57318;56.232;43.944;2023-09-30T11:56:00;11.60;;;7.28;;
69979;SDS011;57318;56.232;43.944;2023-09-30T11:58:30;13.77;;;7.97;;
69979;SDS011;57318;56.232;43.944;2023-09-30T12:00:58;10.95;;;7.18;;
69979;SDS011;57318;56.232;43.944;2023-09-30T12:03:27;10.18;;;6.93;;
69979;SDS011;57318;56.232;43.944;2023-09-30T12:08:20;9.68;;;7.45;;
69979;SDS011;57318;56.232;43.944;2023-09-30T12:10:48;15.60;;;7.70;;
69979;SDS011;57318;56.232;43.944;2023-09-30T12:13:15;12.13;;;8.13;;
69979;SDS011;57318;56.232;43.944;2023-09-30T12:15:43;14.52;;;7.93;;
69979;SDS011;57318;56.232;43.944;2023-09-30T12:18:09;11.15;;;7.47;;
69979;SDS011;57318;56.232;43.944;2023-09-30T12:20:37;16.80;;;7.63;;
69979;SDS011;57318;56.232;43.944;2023-09-30T12:23:05;13.20;;;8.90;;
69979;SDS011;57318;56.232;43.944;2023-09-30T12:25:31;14.48;;;9.30;;
69979;SDS011;57318;56.232;43.944;2023-09-30T12:27:59;12.35;;;8.65;;
69979;SDS011;57318;56.232;43.944;2023-09-30T12:30:24;18.27;;;8.68;;
69979;SDS011;57318;56.232;43.944;2023-09-30T12:32:52;13.52;;;8.85;;
69979;SDS011;57318;56.232;43.944;2023-09-30T12:35:20;14.30;;;7.85;;
69979;SDS011;57318;56.232;43.944;2023-09-30T12:40:11;10.90;;;7.70;;
69979;SDS011;57318;56.232;43.944;2023-09-30T12:42:39;14.95;;;8.48;;
69979;SDS011;57318;56.232;43.944;2023-09-30T12:45:05;12.63;;;7.75;;
69979;SDS011;57318;56.232;43.944;2023-09-30T12:49:57;11.02;;;7.68;;
69979;SDS011;57318;56.232;43.944;2023-09-30T12:52:23;14.90;;;7.38;;
69979;SDS011;57318;56.232;43.944;2023-09-30T12:54:49;11.13;;;7.55;;
69979;SDS011;57318;56.232;43.944;2023-09-30T12:57:15;9.45;;;7.35;;
69979;SDS011;57318;56.232;43.944;2023-09-30T12:59:43;13.38;;;8.15;;
69979;SDS011;57318;56.232;43.944;2023-09-30T13:02:14;14.50;;;7.72;;
69979;SDS011;57318;56.232;43.944;2023-09-30T13:04:40;15.55;;;8.25;;
69979;SDS011;57318;56.232;43.944;2023-09-30T13:07:09;13.88;;;8.23;;
69979;SDS011;57318;56.232;43.944;2023-09-30T13:09:36;10.95;;;8.00;;
69979;SDS011;57318;56.232;43.944;2023-09-30T13:12:02;12.88;;;8.05;;
69979;SDS011;57318;56.232;43.944;2023-09-30T13:16:54;14.80;;;8.30;;
69979;SDS011;57318;56.232;43.944;2023-09-30T13:19:20;12.02;;;7.75;;
69979;SDS011;57318;56.232;43.944;2023-09-30T13:21:49;10.75;;;7.45;;
69979;SDS011;57318;56.232;43.944;2023-09-30T13:24:19;10.30;;;7.57;;
69979;SDS011;57318;56.232;43.944;2023-09-30T13:26:45;12.38;;;8.25;;
69979;SDS011;57318;56.232;43.944;2023-09-30T13:29:12;10.32;;;7.32;;
69979;SDS011;57318;56.232;43.944;2023-09-30T13:31:38;12.80;;;8.15;;
69979;SDS011;57318;56.232;43.944;2023-09-30T13:34:05;15.10;;;8.63;;
69979;SDS011;57318;56.232;43.944;2023-09-30T13:36:32;16.02;;;8.73;;
69979;SDS011;57318;56.232;43.944;2023-09-30T13:41:23;17.45;;;10.50;;
69979;SDS011;57318;56.232;43.944;2023-09-30T13:43:51;21.95;;;12.63;;
69979;SDS011;57318;56.232;43.944;2023-09-30T13:46:17;17.88;;;11.32;;
69979;SDS011;57318;56.232;43.944;2023-09-30T13:48:43;17.02;;;11.55;;
69979;SDS011;57318;56.232;43.944;2023-09-30T13:51:09;18.65;;;11.55;;
69979;SDS011;57318;56.232;43.944;2023-09-30T13:53:36;20.63;;;12.18;;
69979;SDS011;57318;56.232;43.944;2023-09-30T13:56:02;18.60;;;12.02;;
69979;SDS011;57318;56.232;43.944;2023-09-30T13:58:31;23.58;;;13.25;;
69979;SDS011;57318;56.232;43.944;2023-09-30T14:00:57;21.08;;;12.88;;
69979;SDS011;57318;56.232;43.944;2023-09-30T14:03:23;21.77;;;13.45;;
69979;SDS011;57318;56.232;43.944;2023-09-30T14:05:51;23.88;;;14.63;;
69979;SDS011;57318;56.232;43.944;2023-09-30T14:08:22;23.58;;;14.70;;
69979;SDS011;57318;56.232;43.944;2023-09-30T14:10:49;22.77;;;14.77;;
69979;SDS011;57318;56.232;43.944;2023-09-30T14:13:17;19.58;;;12.23;;
69979;SDS011;57318;56.232;43.944;2023-09-30T14:15:44;19.90;;;12.75;;
69979;SDS011;57318;56.232;43.944;2023-09-30T14:18:12;19.55;;;11.82;;
69979;SDS011;57318;56.232;43.944;2023-09-30T14:20:37;20.77;;;11.57;;
69979;SDS011;57318;56.232;43.944;2023-09-30T14:23:03;17.27;;;9.70;;
69979;SDS011;57318;56.232;43.944;2023-09-30T14:25:29;20.83;;;10.00;;
69979;SDS011;57318;56.232;43.944;2023-09-30T14:27:55;19.70;;;10.57;;
69979;SDS011;57318;56.232;43.944;2023-09-30T14:30:21;16.63;;;10.52;;
69979;SDS011;57318;56.232;43.944;2023-09-30T14:32:47;15.63;;;9.07;;
69979;SDS011;57318;56.232;43.944;2023-09-30T14:35:13;14.53;;;9.10;;
69979;SDS011;57318;56.232;43.944;2023-09-30T14:37:40;15.55;;;8.48;;
69979;SDS011;57318;56.232;43.944;2023-09-30T14:40:06;15.82;;;8.77;;
69979;SDS011;57318;56.232;43.944;2023-09-30T14:42:36;14.20;;;8.35;;
69979;SDS011;57318;56.232;43.944;2023-09-30T14:45:02;15.50;;;8.77;;
69979;SDS011;57318;56.232;43.944;2023-09-30T14:47:30;16.23;;;9.52;;
69979;SDS011;57318;56.232;43.944;2023-09-30T14:49:56;13.95;;;9.23;;
69979;SDS011;57318;56.232;43.944;2023-09-30T14:52:21;12.97;;;9.13;;
69979;SDS011;57318;56.232;43.944;2023-09-30T14:54:47;16.75;;;9.23;;
69979;SDS011;57318;56.232;43.944;2023-09-30T14:57:13;14.10;;;9.00;;
69979;SDS011;57318;56.232;43.944;2023-09-30T14:59:41;15.20;;;10.23;;
69979;SDS011;57318;56.232;43.944;2023-09-30T15:02:07;18.73;;;10.20;;
69979;SDS011;57318;56.232;43.944;2023-09-30T15:04:36;21.45;;;10.35;;
69979;SDS011;57318;56.232;43.944;2023-09-30T15:07:02;18.97;;;9.83;;
69979;SDS011;57318;56.232;43.944;2023-09-30T15:09:28;17.50;;;9.45;;
69979;SDS011;57318;56.232;43.944;2023-09-30T15:11:54;16.13;;;9.20;;
69979;SDS011;57318;56.232;43.944;2023-09-30T15:14:20;18.73;;;9.20;;
69979;SDS011;57318;56.232;43.944;2023-09-30T15:16:45;16.27;;;9.93;;
69979;SDS011;57318;56.232;43.944;2023-09-30T15:19:11;16.17;;;8.83;;
69979;SDS011;57318;56.232;43.944;2023-09-30T15:21:37;18.47;;;9.27;;
69979;SDS011;57318;56.232;43.944;2023-09-30T15:24:03;14.87;;;8.43;;
69979;SDS011;57318;56.232;43.944;2023-09-30T15:28:56;14.25;;;8.70;;
69979;SDS011;57318;56.232;43.944;2023-09-30T15:31:31;19.15;;;8.85;;
69979;SDS011;57318;56.232;43.944;2023-09-30T15:33:57;15.38;;;9.10;;
69979;SDS011;57318;56.232;43.944;2023-09-30T15:38:50;21.48;;;9.65;;